sensor_id;sensor_type;location;lat;lon;timestamp;P1;durP1;ratioP1;P2;durP2;ratioP2
76023;SDS011;64719;52.124;6.226;2023-02-28T00:01:13;10.65;;;3.70;;
76023;SDS011;64719;52.124;6.226;2023-02-28T00:03:40;6.72;;;3.20;;
76023;SDS011;64719;52.124;6.226;2023-02-28T00:06:07;4.82;;;3.00;;
76023;SDS011;64719;52.124;6.226;2023-02-28T00:08:35;6.82;;;3.92;;
76023;SDS011;64719;52.124;6.226;2023-02-28T00:11:02;6.75;;;3.78;;
76023;SDS011;64719;52.124;6.226;2023-02-28T00:13:30;8.65;;;3.40;;
76023;SDS011;64719;52.124;6.226;2023-02-28T00:16:00;6.35;;;3.47;;
76023;SDS011;64719;52.124;6.226;2023-02-28T00:18:27;8.73;;;3.67;;
76023;SDS011;64719;52.124;6.226;2023-02-28T00:20:53;4.68;;;3.08;;
76023;SDS011;64719;52.124;6.226;2023-02-28T00:23:20;4.70;;;3.35;;
76023;SDS011;64719;52.124;6.226;2023-02-28T00:25:48;6.70;;;3.25;;
76023;SDS011;64719;52.124;6.226;2023-02-28T00:28:16;6.72;;;3.50;;
76023;SDS011;64719;52.124;6.226;2023-02-28T00:30:42;7.25;;;4.00;;
76023;SDS011;64719;52.124;6.226;2023-02-28T00:33:09;6.55;;;3.33;;
76023;SDS011;64719;52.124;6.226;2023-02-28T00:35:35;5.57;;;3.38;;
76023;SDS011;64719;52.124;6.226;2023-02-28T00:38:02;6.22;;;3.80;;
76023;SDS011;64719;52.124;6.226;2023-02-28T00:40:28;7.20;;;3.35;;
76023;SDS011;64719;52.124;6.226;2023-02-28T00:42:56;4.68;;;3.30;;
76023;SDS011;64719;52.124;6.226;2023-02-28T00:45:23;8.10;;;3.67;;
76023;SDS011;64719;52.124;6.226;2023-02-28T00:47:49;11.25;;;4.35;;
76023;SDS011;64719;52.124;6.226;2023-02-28T00:50:16;8.73;;;3.63;;
76023;SDS011;64719;52.124;6.226;2023-02-28T00:52:42;6.72;;;3.40;;
76023;SDS011;64719;52.124;6.226;2023-02-28T00:55:09;10.27;;;3.83;;
76023;SDS011;64719;52.124;6.226;2023-02-28T00:57:36;6.45;;;3.65;;
76023;SDS011;64719;52.124;6.226;2023-02-28T01:00:04;7.60;;;3.90;;
76023;SDS011;64719;52.124;6.226;2023-02-28T01:02:32;12.45;;;4.10;;
76023;SDS011;64719;52.124;6.226;2023-02-28T01:04:59;7.13;;;3.25;;
76023;SDS011;64719;52.124;6.226;2023-02-28T01:07:25;9.88;;;4.20;;
76023;SDS011;64719;52.124;6.226;2023-02-28T01:09:52;7.43;;;3.63;;
76023;SDS011;64719;52.124;6.226;2023-02-28T01:12:18;7.28;;;3.70;;
76023;SDS011;64719;52.124;6.226;2023-02-28T01:14:45;7.45;;;4.20;;
76023;SDS011;64719;52.124;6.226;2023-02-28T01:17:13;6.03;;;3.40;;
76023;SDS011;64719;52.124;6.226;2023-02-28T01:19:39;7.63;;;3.65;;
76023;SDS011;64719;52.124;6.226;2023-02-28T01:22:06;6.65;;;3.92;;
76023;SDS011;64719;52.124;6.226;2023-02-28T01:24:32;6.75;;;3.92;;
76023;SDS011;64719;52.124;6.226;2023-02-28T01:26:59;6.25;;;3.97;;
76023;SDS011;64719;52.124;6.226;2023-02-28T01:29:26;6.15;;;3.60;;
76023;SDS011;64719;52.124;6.226;2023-02-28T01:31:52;7.05;;;3.72;;
76023;SDS011;64719;52.124;6.226;2023-02-28T01:34:20;7.45;;;3.70;;
76023;SDS011;64719;52.124;6.226;2023-02-28T01:36:46;7.43;;;3.38;;
76023;SDS011;64719;52.124;6.226;2023-02-28T01:39:13;6.28;;;3.63;;
76023;SDS011;64719;52.124;6.226;2023-02-28T01:41:39;6.57;;;4.05;;
76023;SDS011;64719;52.124;6.226;2023-02-28T01:44:07;6.43;;;3.88;;
76023;SDS011;64719;52.124;6.226;2023-02-28T01:46:53;8.32;;;4.22;;
76023;SDS011;64719;52.124;6.226;2023-02-28T01:49:21;9.63;;;4.47;;
76023;SDS011;64719;52.124;6.226;2023-02-28T01:51:48;8.02;;;4.05;;
76023;SDS011;64719;52.124;6.226;2023-02-28T01:54:18;7.50;;;4.03;;
76023;SDS011;64719;52.124;6.226;2023-02-28T01:56:49;7.95;;;4.13;;
76023;SDS011;64719;52.124;6.226;2023-02-28T01:59:21;7.05;;;3.90;;
76023;SDS011;64719;52.124;6.226;2023-02-28T02:01:53;5.22;;;3.92;;
76023;SDS011;64719;52.124;6.226;2023-02-28T02:04:21;10.50;;;4.35;;
76023;SDS011;64719;52.124;6.226;2023-02-28T02:06:51;6.97;;;3.90;;
76023;SDS011;64719;52.124;6.226;2023-02-28T02:09:18;7.00;;;3.58;;
76023;SDS011;64719;52.124;6.226;2023-02-28T02:11:44;7.72;;;4.15;;
76023;SDS011;64719;52.124;6.226;2023-02-28T02:14:16;11.45;;;4.50;;
76023;SDS011;64719;52.124;6.226;2023-02-28T02:17:07;6.03;;;3.83;;
76023;SDS011;64719;52.124;6.226;2023-02-28T02:19:57;8.18;;;4.30;;
76023;SDS011;64719;52.124;6.226;2023-02-28T02:23:01;5.90;;;3.63;;
76023;SDS011;64719;52.124;6.226;2023-02-28T02:25:53;5.90;;;4.25;;
76023;SDS011;64719;52.124;6.226;2023-02-28T02:28:27;9.60;;;4.72;;
76023;SDS011;64719;52.124;6.226;2023-02-28T02:31:15;8.13;;;4.38;;
76023;SDS011;64719;52.124;6.226;2023-02-28T02:36:45;8.20;;;4.10;;
76023;SDS011;64719;52.124;6.226;2023-02-28T02:39:18;7.22;;;4.13;;
76023;SDS011;64719;52.124;6.226;2023-02-28T02:41:49;7.78;;;4.90;;
76023;SDS011;64719;52.124;6.226;2023-02-28T02:44:20;9.98;;;5.05;;
76023;SDS011;64719;52.124;6.226;2023-02-28T02:46:50;7.07;;;4.32;;
76023;SDS011;64719;52.124;6.226;2023-02-28T02:49:23;9.75;;;4.40;;
76023;SDS011;64719;52.124;6.226;2023-02-28T02:51:52;8.80;;;4.28;;
76023;SDS011;64719;52.124;6.226;2023-02-28T02:54:22;8.38;;;4.10;;
76023;SDS011;64719;52.124;6.226;2023-02-28T02:56:54;7.32;;;4.30;;
76023;SDS011;64719;52.124;6.226;2023-02-28T02:59:24;6.82;;;4.35;;
76023;SDS011;64719;52.124;6.226;2023-02-28T03:01:55;7.22;;;4.63;;
76023;SDS011;64719;52.124;6.226;2023-02-28T03:04:25;8.23;;;4.78;;
76023;SDS011;64719;52.124;6.226;2023-02-28T03:06:56;7.03;;;3.92;;
76023;SDS011;64719;52.124;6.226;2023-02-28T03:09:23;6.70;;;4.28;;
76023;SDS011;64719;52.124;6.226;2023-02-28T03:11:50;6.07;;;3.95;;
76023;SDS011;64719;52.124;6.226;2023-02-28T03:14:23;6.68;;;4.47;;
76023;SDS011;64719;52.124;6.226;2023-02-28T03:17:00;7.20;;;4.78;;
76023;SDS011;64719;52.124;6.226;2023-02-28T03:19:51;8.18;;;4.13;;
76023;SDS011;64719;52.124;6.226;2023-02-28T03:22:29;8.05;;;4.05;;
76023;SDS011;64719;52.124;6.226;2023-02-28T03:25:07;7.07;;;3.92;;
76023;SDS011;64719;52.124;6.226;2023-02-28T03:27:40;6.47;;;3.72;;
76023;SDS011;64719;52.124;6.226;2023-02-28T03:30:14;9.30;;;4.30;;
76023;SDS011;64719;52.124;6.226;2023-02-28T03:35:19;9.38;;;4.50;;
76023;SDS011;64719;52.124;6.226;2023-02-28T03:37:49;6.13;;;3.72;;
76023;SDS011;64719;52.124;6.226;2023-02-28T03:40:20;7.15;;;4.00;;
76023;SDS011;64719;52.124;6.226;2023-02-28T03:42:50;8.30;;;4.50;;
76023;SDS011;64719;52.124;6.226;2023-02-28T03:45:21;6.88;;;4.05;;
76023;SDS011;64719;52.124;6.226;2023-02-28T03:47:53;6.30;;;4.35;;
76023;SDS011;64719;52.124;6.226;2023-02-28T03:50:23;7.28;;;3.88;;
76023;SDS011;64719;52.124;6.226;2023-02-28T03:52:54;8.35;;;4.70;;
76023;SDS011;64719;52.124;6.226;2023-02-28T03:55:26;6.20;;;4.07;;
76023;SDS011;64719;52.124;6.226;2023-02-28T03:57:56;8.52;;;4.15;;
76023;SDS011;64719;52.124;6.226;2023-02-28T04:00:29;6.47;;;3.97;;
76023;SDS011;64719;52.124;6.226;2023-02-28T04:02:58;7.75;;;4.63;;
76023;SDS011;64719;52.124;6.226;2023-02-28T04:05:26;7.45;;;4.53;;
76023;SDS011;64719;52.124;6.226;2023-02-28T04:07:53;7.38;;;4.13;;
76023;SDS011;64719;52.124;6.226;2023-02-28T04:10:20;6.30;;;4.00;;
76023;SDS011;64719;52.124;6.226;2023-02-28T04:12:46;5.57;;;3.80;;
76023;SDS011;64719;52.124;6.226;2023-02-28T04:15:13;6.40;;;3.92;;
76023;SDS011;64719;52.124;6.226;2023-02-28T04:17:39;6.88;;;3.95;;
76023;SDS011;64719;52.124;6.226;2023-02-28T04:20:06;8.30;;;4.95;;
76023;SDS011;64719;52.124;6.226;2023-02-28T04:22:36;5.88;;;3.67;;
76023;SDS011;64719;52.124;6.226;2023-02-28T04:25:03;7.30;;;3.90;;
76023;SDS011;64719;52.124;6.226;2023-02-28T04:27:31;7.53;;;4.07;;
76023;SDS011;64719;52.124;6.226;2023-02-28T04:29:57;6.68;;;3.67;;
76023;SDS011;64719;52.124;6.226;2023-02-28T04:32:24;5.75;;;3.60;;
76023;SDS011;64719;52.124;6.226;2023-02-28T04:34:50;4.80;;;3.47;;
76023;SDS011;64719;52.124;6.226;2023-02-28T04:37:17;6.18;;;3.67;;
76023;SDS011;64719;52.124;6.226;2023-02-28T04:39:45;6.38;;;3.42;;
76023;SDS011;64719;52.124;6.226;2023-02-28T04:42:11;7.93;;;4.30;;
76023;SDS011;64719;52.124;6.226;2023-02-28T04:44:38;8.27;;;4.00;;
76023;SDS011;64719;52.124;6.226;2023-02-28T04:47:05;6.30;;;3.92;;
76023;SDS011;64719;52.124;6.226;2023-02-28T04:49:32;5.43;;;3.67;;
76023;SDS011;64719;52.124;6.226;2023-02-28T04:51:58;5.75;;;4.25;;
76023;SDS011;64719;52.124;6.226;2023-02-28T04:54:25;5.78;;;3.50;;
76023;SDS011;64719;52.124;6.226;2023-02-28T04:56:53;4.75;;;3.50;;
76023;SDS011;64719;52.124;6.226;2023-02-28T04:59:19;5.88;;;3.75;;
76023;SDS011;64719;52.124;6.226;2023-02-28T05:01:47;4.85;;;3.45;;
76023;SDS011;64719;52.124;6.226;2023-02-28T05:04:14;10.18;;;4.32;;
76023;SDS011;64719;52.124;6.226;2023-02-28T05:06:41;7.03;;;3.63;;
76023;SDS011;64719;52.124;6.226;2023-02-28T05:09:08;8.10;;;4.20;;
76023;SDS011;64719;52.124;6.226;2023-02-28T05:11:36;5.78;;;3.45;;
76023;SDS011;64719;52.124;6.226;2023-02-28T05:14:06;5.88;;;3.55;;
76023;SDS011;64719;52.124;6.226;2023-02-28T05:16:35;5.90;;;3.65;;
76023;SDS011;64719;52.124;6.226;2023-02-28T05:19:01;6.10;;;3.13;;
76023;SDS011;64719;52.124;6.226;2023-02-28T05:21:29;6.25;;;3.63;;
76023;SDS011;64719;52.124;6.226;2023-02-28T05:23:58;9.45;;;4.30;;
76023;SDS011;64719;52.124;6.226;2023-02-28T05:26:26;6.60;;;3.70;;
76023;SDS011;64719;52.124;6.226;2023-02-28T05:28:53;5.53;;;3.70;;
76023;SDS011;64719;52.124;6.226;2023-02-28T05:31:22;6.10;;;3.70;;
76023;SDS011;64719;52.124;6.226;2023-02-28T05:33:49;6.07;;;3.53;;
76023;SDS011;64719;52.124;6.226;2023-02-28T05:36:15;5.65;;;3.80;;
76023;SDS011;64719;52.124;6.226;2023-02-28T05:38:42;6.40;;;4.00;;
76023;SDS011;64719;52.124;6.226;2023-02-28T05:41:09;8.40;;;4.32;;
76023;SDS011;64719;52.124;6.226;2023-02-28T05:43:36;5.32;;;3.70;;
76023;SDS011;64719;52.124;6.226;2023-02-28T05:46:04;6.70;;;3.88;;
76023;SDS011;64719;52.124;6.226;2023-02-28T05:48:33;7.28;;;4.28;;
76023;SDS011;64719;52.124;6.226;2023-02-28T05:53:27;9.95;;;4.13;;
76023;SDS011;64719;52.124;6.226;2023-02-28T05:55:54;6.20;;;3.90;;
76023;SDS011;64719;52.124;6.226;2023-02-28T05:58:20;6.90;;;4.13;;
76023;SDS011;64719;52.124;6.226;2023-02-28T06:00:48;7.03;;;3.72;;
76023;SDS011;64719;52.124;6.226;2023-02-28T06:03:14;7.22;;;4.10;;
76023;SDS011;64719;52.124;6.226;2023-02-28T06:05:42;7.35;;;3.95;;
76023;SDS011;64719;52.124;6.226;2023-02-28T06:08:09;6.63;;;4.03;;
76023;SDS011;64719;52.124;6.226;2023-02-28T06:10:35;10.82;;;4.63;;
76023;SDS011;64719;52.124;6.226;2023-02-28T06:13:03;5.63;;;3.85;;
76023;SDS011;64719;52.124;6.226;2023-02-28T06:15:30;6.68;;;3.95;;
76023;SDS011;64719;52.124;6.226;2023-02-28T06:17:57;6.57;;;4.30;;
76023;SDS011;64719;52.124;6.226;2023-02-28T06:20:24;9.10;;;4.28;;
76023;SDS011;64719;52.124;6.226;2023-02-28T06:22:55;9.43;;;3.70;;
76023;SDS011;64719;52.124;6.226;2023-02-28T06:25:23;7.05;;;4.68;;
76023;SDS011;64719;52.124;6.226;2023-02-28T06:27:50;6.43;;;4.22;;
76023;SDS011;64719;52.124;6.226;2023-02-28T06:30:17;7.93;;;4.95;;
76023;SDS011;64719;52.124;6.226;2023-02-28T06:32:48;8.05;;;4.40;;
76023;SDS011;64719;52.124;6.226;2023-02-28T06:35:15;7.90;;;4.18;;
76023;SDS011;64719;52.124;6.226;2023-02-28T06:37:42;7.32;;;4.75;;
76023;SDS011;64719;52.124;6.226;2023-02-28T06:40:11;9.52;;;4.72;;
76023;SDS011;64719;52.124;6.226;2023-02-28T06:42:38;8.77;;;4.50;;
76023;SDS011;64719;52.124;6.226;2023-02-28T06:45:05;7.60;;;4.20;;
76023;SDS011;64719;52.124;6.226;2023-02-28T06:50:00;7.43;;;4.30;;
76023;SDS011;64719;52.124;6.226;2023-02-28T06:52:27;10.43;;;4.88;;
76023;SDS011;64719;52.124;6.226;2023-02-28T06:54:53;9.00;;;4.90;;
76023;SDS011;64719;52.124;6.226;2023-02-28T06:57:26;8.02;;;4.63;;
76023;SDS011;64719;52.124;6.226;2023-02-28T06:59:55;9.80;;;5.22;;
76023;SDS011;64719;52.124;6.226;2023-02-28T07:02:23;7.10;;;4.30;;
76023;SDS011;64719;52.124;6.226;2023-02-28T07:04:49;5.50;;;3.88;;
76023;SDS011;64719;52.124;6.226;2023-02-28T07:07:16;7.93;;;4.53;;
76023;SDS011;64719;52.124;6.226;2023-02-28T07:09:42;10.98;;;4.80;;
76023;SDS011;64719;52.124;6.226;2023-02-28T07:12:09;7.70;;;4.72;;
76023;SDS011;64719;52.124;6.226;2023-02-28T07:14:37;5.53;;;4.00;;
76023;SDS011;64719;52.124;6.226;2023-02-28T07:17:03;8.30;;;4.70;;
76023;SDS011;64719;52.124;6.226;2023-02-28T07:19:32;9.77;;;4.70;;
76023;SDS011;64719;52.124;6.226;2023-02-28T07:21:59;6.10;;;4.30;;
76023;SDS011;64719;52.124;6.226;2023-02-28T07:24:26;6.68;;;4.43;;
76023;SDS011;64719;52.124;6.226;2023-02-28T07:26:53;8.18;;;4.47;;
76023;SDS011;64719;52.124;6.226;2023-02-28T07:29:19;7.68;;;4.22;;
76023;SDS011;64719;52.124;6.226;2023-02-28T07:31:47;6.22;;;3.83;;
76023;SDS011;64719;52.124;6.226;2023-02-28T07:34:15;7.90;;;4.35;;
76023;SDS011;64719;52.124;6.226;2023-02-28T07:36:42;7.15;;;4.43;;
76023;SDS011;64719;52.124;6.226;2023-02-28T07:39:08;9.38;;;4.53;;
76023;SDS011;64719;52.124;6.226;2023-02-28T07:41:35;6.53;;;4.63;;
76023;SDS011;64719;52.124;6.226;2023-02-28T07:44:08;8.52;;;4.30;;
76023;SDS011;64719;52.124;6.226;2023-02-28T07:46:34;6.13;;;4.05;;
76023;SDS011;64719;52.124;6.226;2023-02-28T07:49:02;4.95;;;3.85;;
76023;SDS011;64719;52.124;6.226;2023-02-28T07:51:29;7.32;;;4.00;;
76023;SDS011;64719;52.124;6.226;2023-02-28T07:53:56;5.63;;;3.63;;
76023;SDS011;64719;52.124;6.226;2023-02-28T07:56:23;4.45;;;3.20;;
76023;SDS011;64719;52.124;6.226;2023-02-28T07:58:50;5.60;;;3.15;;
76023;SDS011;64719;52.124;6.226;2023-02-28T08:01:16;5.78;;;3.75;;
76023;SDS011;64719;52.124;6.226;2023-02-28T08:06:16;4.65;;;3.25;;
76023;SDS011;64719;52.124;6.226;2023-02-28T08:08:44;5.47;;;3.08;;
76023;SDS011;64719;52.124;6.226;2023-02-28T08:11:10;4.35;;;2.92;;
76023;SDS011;64719;52.124;6.226;2023-02-28T08:13:37;3.28;;;2.40;;
76023;SDS011;64719;52.124;6.226;2023-02-28T08:16:04;3.85;;;2.50;;
76023;SDS011;64719;52.124;6.226;2023-02-28T08:18:31;4.10;;;2.30;;
76023;SDS011;64719;52.124;6.226;2023-02-28T08:20:58;4.45;;;2.08;;
76023;SDS011;64719;52.124;6.226;2023-02-28T08:23:26;2.53;;;2.03;;
76023;SDS011;64719;52.124;6.226;2023-02-28T08:25:53;3.30;;;1.95;;
76023;SDS011;64719;52.124;6.226;2023-02-28T08:28:20;3.20;;;1.77;;
76023;SDS011;64719;52.124;6.226;2023-02-28T08:30:47;4.05;;;1.80;;
76023;SDS011;64719;52.124;6.226;2023-02-28T08:33:14;2.03;;;1.38;;
76023;SDS011;64719;52.124;6.226;2023-02-28T08:35:40;2.85;;;1.58;;
76023;SDS011;64719;52.124;6.226;2023-02-28T08:38:07;3.50;;;1.70;;
76023;SDS011;64719;52.124;6.226;2023-02-28T08:40:35;2.05;;;1.40;;
76023;SDS011;64719;52.124;6.226;2023-02-28T08:43:01;2.75;;;1.60;;
76023;SDS011;64719;52.124;6.226;2023-02-28T08:45:28;2.40;;;1.70;;
76023;SDS011;64719;52.124;6.226;2023-02-28T08:47:54;3.30;;;1.60;;
76023;SDS011;64719;52.124;6.226;2023-02-28T08:50:21;2.55;;;1.58;;
76023;SDS011;64719;52.124;6.226;2023-02-28T08:52:47;2.33;;;1.60;;
76023;SDS011;64719;52.124;6.226;2023-02-28T08:55:14;2.38;;;1.42;;
76023;SDS011;64719;52.124;6.226;2023-02-28T08:57:42;2.42;;;1.63;;
76023;SDS011;64719;52.124;6.226;2023-02-28T09:00:09;1.90;;;1.40;;
76023;SDS011;64719;52.124;6.226;2023-02-28T09:02:38;2.28;;;1.42;;
76023;SDS011;64719;52.124;6.226;2023-02-28T09:05:05;2.58;;;1.30;;
76023;SDS011;64719;52.124;6.226;2023-02-28T09:07:32;2.55;;;1.40;;
76023;SDS011;64719;52.124;6.226;2023-02-28T09:09:59;2.63;;;1.40;;
76023;SDS011;64719;52.124;6.226;2023-02-28T09:12:26;2.85;;;1.15;;
76023;SDS011;64719;52.124;6.226;2023-02-28T09:14:55;2.85;;;1.58;;
76023;SDS011;64719;52.124;6.226;2023-02-28T09:17:21;2.55;;;1.52;;
76023;SDS011;64719;52.124;6.226;2023-02-28T09:19:48;2.42;;;1.50;;
76023;SDS011;64719;52.124;6.226;2023-02-28T09:22:15;2.08;;;1.40;;
76023;SDS011;64719;52.124;6.226;2023-02-28T09:24:41;2.63;;;1.38;;
76023;SDS011;64719;52.124;6.226;2023-02-28T09:27:09;2.05;;;1.50;;
76023;SDS011;64719;52.124;6.226;2023-02-28T09:29:35;1.50;;;1.20;;
76023;SDS011;64719;52.124;6.226;2023-02-28T09:32:03;2.05;;;1.40;;
76023;SDS011;64719;52.124;6.226;2023-02-28T09:34:32;2.25;;;1.40;;
76023;SDS011;64719;52.124;6.226;2023-02-28T09:36:59;1.90;;;1.25;;
76023;SDS011;64719;52.124;6.226;2023-02-28T09:39:25;2.08;;;1.20;;
76023;SDS011;64719;52.124;6.226;2023-02-28T09:41:54;2.03;;;1.20;;
76023;SDS011;64719;52.124;6.226;2023-02-28T09:44:26;2.45;;;1.20;;
76023;SDS011;64719;52.124;6.226;2023-02-28T09:46:55;1.98;;;1.35;;
76023;SDS011;64719;52.124;6.226;2023-02-28T09:49:28;1.83;;;1.10;;
76023;SDS011;64719;52.124;6.226;2023-02-28T09:52:01;1.90;;;1.20;;
76023;SDS011;64719;52.124;6.226;2023-02-28T09:54:31;2.10;;;1.55;;
76023;SDS011;64719;52.124;6.226;2023-02-28T09:56:59;2.92;;;1.73;;
76023;SDS011;64719;52.124;6.226;2023-02-28T09:59:42;2.33;;;1.23;;
76023;SDS011;64719;52.124;6.226;2023-02-28T10:05:26;1.98;;;1.42;;
76023;SDS011;64719;52.124;6.226;2023-02-28T10:07:59;3.22;;;1.35;;
76023;SDS011;64719;52.124;6.226;2023-02-28T10:13:00;2.13;;;1.15;;
76023;SDS011;64719;52.124;6.226;2023-02-28T10:15:31;2.17;;;1.25;;
76023;SDS011;64719;52.124;6.226;2023-02-28T10:18:01;2.15;;;1.20;;
76023;SDS011;64719;52.124;6.226;2023-02-28T10:20:32;1.77;;;1.25;;
76023;SDS011;64719;52.124;6.226;2023-02-28T10:23:03;2.00;;;1.23;;
76023;SDS011;64719;52.124;6.226;2023-02-28T10:25:37;1.75;;;1.20;;
76023;SDS011;64719;52.124;6.226;2023-02-28T10:28:09;2.20;;;1.20;;
76023;SDS011;64719;52.124;6.226;2023-02-28T10:30:38;3.10;;;1.40;;
76023;SDS011;64719;52.124;6.226;2023-02-28T10:33:10;1.75;;;1.10;;
76023;SDS011;64719;52.124;6.226;2023-02-28T10:35:45;1.95;;;1.10;;
76023;SDS011;64719;52.124;6.226;2023-02-28T10:38:14;2.53;;;1.50;;
76023;SDS011;64719;52.124;6.226;2023-02-28T10:40:43;2.20;;;1.30;;
76023;SDS011;64719;52.124;6.226;2023-02-28T10:43:18;2.45;;;1.40;;
76023;SDS011;64719;52.124;6.226;2023-02-28T10:45:57;2.03;;;1.13;;
76023;SDS011;64719;52.124;6.226;2023-02-28T10:48:29;3.05;;;1.30;;
76023;SDS011;64719;52.124;6.226;2023-02-28T10:51:00;1.90;;;1.45;;
76023;SDS011;64719;52.124;6.226;2023-02-28T10:53:30;2.10;;;1.45;;
76023;SDS011;64719;52.124;6.226;2023-02-28T10:56:00;2.33;;;1.60;;
76023;SDS011;64719;52.124;6.226;2023-02-28T10:58:29;3.40;;;1.40;;
76023;SDS011;64719;52.124;6.226;2023-02-28T11:00:57;2.45;;;1.50;;
76023;SDS011;64719;52.124;6.226;2023-02-28T11:03:29;2.00;;;1.40;;
76023;SDS011;64719;52.124;6.226;2023-02-28T11:05:58;2.00;;;1.50;;
76023;SDS011;64719;52.124;6.226;2023-02-28T11:08:30;2.58;;;1.90;;
76023;SDS011;64719;52.124;6.226;2023-02-28T11:10:57;2.30;;;1.60;;
76023;SDS011;64719;52.124;6.226;2023-02-28T11:13:28;2.38;;;1.55;;
76023;SDS011;64719;52.124;6.226;2023-02-28T11:15:59;2.38;;;1.60;;
76023;SDS011;64719;52.124;6.226;2023-02-28T11:18:29;3.60;;;2.33;;
76023;SDS011;64719;52.124;6.226;2023-02-28T11:21:01;2.83;;;2.00;;
76023;SDS011;64719;52.124;6.226;2023-02-28T11:23:30;2.30;;;1.65;;
76023;SDS011;64719;52.124;6.226;2023-02-28T11:26:00;2.50;;;1.60;;
76023;SDS011;64719;52.124;6.226;2023-02-28T11:28:30;2.53;;;1.70;;
76023;SDS011;64719;52.124;6.226;2023-02-28T11:31:05;6.35;;;1.83;;
76023;SDS011;64719;52.124;6.226;2023-02-28T11:36:16;3.00;;;2.20;;
76023;SDS011;64719;52.124;6.226;2023-02-28T11:38:45;2.83;;;2.13;;
76023;SDS011;64719;52.124;6.226;2023-02-28T11:41:16;2.97;;;2.10;;
76023;SDS011;64719;52.124;6.226;2023-02-28T11:43:58;3.00;;;1.83;;
76023;SDS011;64719;52.124;6.226;2023-02-28T11:46:40;3.20;;;2.20;;
76023;SDS011;64719;52.124;6.226;2023-02-28T11:49:16;2.38;;;1.80;;
76023;SDS011;64719;52.124;6.226;2023-02-28T11:51:58;2.92;;;1.80;;
76023;SDS011;64719;52.124;6.226;2023-02-28T11:54:34;2.63;;;1.75;;
76023;SDS011;64719;52.124;6.226;2023-02-28T11:57:19;2.28;;;1.50;;
76023;SDS011;64719;52.124;6.226;2023-02-28T11:59:59;2.70;;;1.50;;
76023;SDS011;64719;52.124;6.226;2023-02-28T12:02:35;2.55;;;1.50;;
76023;SDS011;64719;52.124;6.226;2023-02-28T12:05:17;2.65;;;1.70;;
76023;SDS011;64719;52.124;6.226;2023-02-28T12:07:58;1.95;;;1.20;;
76023;SDS011;64719;52.124;6.226;2023-02-28T12:10:35;2.13;;;1.50;;
76023;SDS011;64719;52.124;6.226;2023-02-28T12:13:21;2.78;;;1.48;;
76023;SDS011;64719;52.124;6.226;2023-02-28T12:16:03;2.40;;;1.40;;
76023;SDS011;64719;52.124;6.226;2023-02-28T12:19:01;2.22;;;1.50;;
76023;SDS011;64719;52.124;6.226;2023-02-28T12:21:45;4.43;;;1.52;;
76023;SDS011;64719;52.124;6.226;2023-02-28T12:24:24;2.08;;;1.33;;
76023;SDS011;64719;52.124;6.226;2023-02-28T12:27:02;2.55;;;1.40;;
76023;SDS011;64719;52.124;6.226;2023-02-28T12:29:33;2.17;;;1.58;;
76023;SDS011;64719;52.124;6.226;2023-02-28T12:32:09;2.58;;;1.70;;
76023;SDS011;64719;52.124;6.226;2023-02-28T12:34:42;2.53;;;1.85;;
76023;SDS011;64719;52.124;6.226;2023-02-28T12:37:13;2.72;;;1.70;;
76023;SDS011;64719;52.124;6.226;2023-02-28T12:39:45;2.63;;;1.73;;
76023;SDS011;64719;52.124;6.226;2023-02-28T12:42:17;2.35;;;1.58;;
76023;SDS011;64719;52.124;6.226;2023-02-28T12:44:51;3.10;;;1.80;;
76023;SDS011;64719;52.124;6.226;2023-02-28T12:47:21;2.35;;;1.80;;
76023;SDS011;64719;52.124;6.226;2023-02-28T12:49:49;2.75;;;1.95;;
76023;SDS011;64719;52.124;6.226;2023-02-28T12:52:19;2.90;;;1.85;;
76023;SDS011;64719;52.124;6.226;2023-02-28T12:54:53;3.47;;;1.77;;
76023;SDS011;64719;52.124;6.226;2023-02-28T12:57:27;2.17;;;1.60;;
76023;SDS011;64719;52.124;6.226;2023-02-28T13:00:02;2.55;;;1.75;;
76023;SDS011;64719;52.124;6.226;2023-02-28T13:05:46;2.78;;;1.63;;
76023;SDS011;64719;52.124;6.226;2023-02-28T13:08:25;2.65;;;1.73;;
76023;SDS011;64719;52.124;6.226;2023-02-28T13:11:10;2.22;;;1.50;;
76023;SDS011;64719;52.124;6.226;2023-02-28T13:13:55;3.25;;;1.85;;
76023;SDS011;64719;52.124;6.226;2023-02-28T13:16:23;2.50;;;1.52;;
76023;SDS011;64719;52.124;6.226;2023-02-28T13:18:50;1.95;;;1.63;;
76023;SDS011;64719;52.124;6.226;2023-02-28T13:21:24;2.63;;;1.55;;
76023;SDS011;64719;52.124;6.226;2023-02-28T13:23:57;2.58;;;1.52;;
76023;SDS011;64719;52.124;6.226;2023-02-28T13:35:14;1.98;;;1.40;;
76023;SDS011;64719;52.124;6.226;2023-02-28T13:38:12;3.45;;;1.80;;
76023;SDS011;64719;52.124;6.226;2023-02-28T13:40:43;2.75;;;1.95;;
76023;SDS011;64719;52.124;6.226;2023-02-28T13:43:10;3.88;;;1.70;;
76023;SDS011;64719;52.124;6.226;2023-02-28T13:45:38;2.17;;;1.63;;
76023;SDS011;64719;52.124;6.226;2023-02-28T13:48:14;3.45;;;1.67;;
76023;SDS011;64719;52.124;6.226;2023-02-28T13:50:43;2.88;;;1.65;;
76023;SDS011;64719;52.124;6.226;2023-02-28T13:56:27;2.72;;;1.90;;
76023;SDS011;64719;52.124;6.226;2023-02-28T13:59:06;2.65;;;1.80;;
76023;SDS011;64719;52.124;6.226;2023-02-28T14:01:53;2.88;;;1.70;;
76023;SDS011;64719;52.124;6.226;2023-02-28T14:07:28;2.35;;;1.70;;
76023;SDS011;64719;52.124;6.226;2023-02-28T14:09:59;2.50;;;1.45;;
76023;SDS011;64719;52.124;6.226;2023-02-28T14:15:27;2.60;;;1.52;;
76023;SDS011;64719;52.124;6.226;2023-02-28T14:18:16;3.40;;;1.67;;
76023;SDS011;64719;52.124;6.226;2023-02-28T14:20:47;2.55;;;1.50;;
76023;SDS011;64719;52.124;6.226;2023-02-28T14:23:16;2.22;;;1.63;;
76023;SDS011;64719;52.124;6.226;2023-02-28T14:25:54;3.17;;;1.60;;
76023;SDS011;64719;52.124;6.226;2023-02-28T14:28:36;2.13;;;1.42;;
76023;SDS011;64719;52.124;6.226;2023-02-28T14:31:14;2.53;;;1.60;;
76023;SDS011;64719;52.124;6.226;2023-02-28T14:33:57;1.90;;;1.40;;
76023;SDS011;64719;52.124;6.226;2023-02-28T14:36:38;3.05;;;1.55;;
76023;SDS011;64719;52.124;6.226;2023-02-28T14:39:07;2.40;;;1.60;;
76023;SDS011;64719;52.124;6.226;2023-02-28T14:41:40;3.25;;;1.55;;
76023;SDS011;64719;52.124;6.226;2023-02-28T14:44:14;2.13;;;1.30;;
76023;SDS011;64719;52.124;6.226;2023-02-28T14:46:43;2.65;;;1.70;;
76023;SDS011;64719;52.124;6.226;2023-02-28T14:49:17;3.30;;;1.98;;
76023;SDS011;64719;52.124;6.226;2023-02-28T14:51:47;3.10;;;1.52;;
76023;SDS011;64719;52.124;6.226;2023-02-28T14:54:15;3.20;;;1.70;;
76023;SDS011;64719;52.124;6.226;2023-02-28T14:56:48;2.45;;;1.80;;
76023;SDS011;64719;52.124;6.226;2023-02-28T15:02:18;3.22;;;1.73;;
76023;SDS011;64719;52.124;6.226;2023-02-28T15:04:55;2.53;;;1.70;;
76023;SDS011;64719;52.124;6.226;2023-02-28T15:07:22;2.50;;;1.63;;
76023;SDS011;64719;52.124;6.226;2023-02-28T15:10:15;2.47;;;1.88;;
76023;SDS011;64719;52.124;6.226;2023-02-28T15:12:45;2.65;;;1.70;;
76023;SDS011;64719;52.124;6.226;2023-02-28T15:15:18;1.90;;;1.60;;
76023;SDS011;64719;52.124;6.226;2023-02-28T15:20:17;2.45;;;1.63;;
76023;SDS011;64719;52.124;6.226;2023-02-28T15:22:45;2.92;;;1.92;;
76023;SDS011;64719;52.124;6.226;2023-02-28T15:25:14;2.10;;;1.60;;
76023;SDS011;64719;52.124;6.226;2023-02-28T15:27:44;2.78;;;1.77;;
76023;SDS011;64719;52.124;6.226;2023-02-28T15:30:15;2.28;;;1.63;;
76023;SDS011;64719;52.124;6.226;2023-02-28T15:32:44;2.20;;;1.70;;
76023;SDS011;64719;52.124;6.226;2023-02-28T15:35:19;3.13;;;1.80;;
76023;SDS011;64719;52.124;6.226;2023-02-28T15:37:53;3.53;;;1.52;;
76023;SDS011;64719;52.124;6.226;2023-02-28T15:40:23;2.47;;;1.42;;
76023;SDS011;64719;52.124;6.226;2023-02-28T15:42:59;2.17;;;1.70;;
76023;SDS011;64719;52.124;6.226;2023-02-28T15:45:35;3.05;;;1.67;;
76023;SDS011;64719;52.124;6.226;2023-02-28T15:48:06;3.45;;;1.70;;
76023;SDS011;64719;52.124;6.226;2023-02-28T15:50:43;2.83;;;1.50;;
76023;SDS011;64719;52.124;6.226;2023-02-28T15:53:14;2.10;;;1.52;;
76023;SDS011;64719;52.124;6.226;2023-02-28T15:55:43;2.50;;;1.50;;